Time;durP1;ratioP1;P1;durP2;ratioP2;P2;SDS_P1;SDS_P2;PMS_P1;PMS_P2;Temp;Humidity;BMP_temperature;BMP_pressure;BME280_temperature;BME280_humidity;BME280_pressure;Samples;Min_cycle;Max_cycle;Signal;HPM_P1;HPM_P2
2022/04/10 00:02:13;;;;;;;2.55;1.70;;;;;;;;;;4994078;28;20057;-68
2022/04/10 00:04:43;;;;;;;1.60;1.50;;;;;;;;;;4993919;28;20497;-69
2022/04/10 00:07:12;;;;;;;1.60;1.50;;;;;;;;;;4993934;28;20417;-69
2022/04/10 00:09:39;;;;;;;2.28;1.77;;;;;;;;;;4994350;28;20070;-69
2022/04/10 00:12:08;;;;;;;1.90;1.80;;;;;;;;;;4993954;28;20046;-68
2022/04/10 00:14:36;;;;;;;2.15;1.80;;;;;;;;;;4993606;28;20053;-68
2022/04/10 00:17:05;;;;;;;1.85;1.75;;;;;;;;;;4992927;28;20505;-68
2022/04/10 00:19:34;;;;;;;2.28;2.13;;;;;;;;;;4993951;28;20092;-67
2022/04/10 00:22:03;;;;;;;2.42;2.28;;;;;;;;;;4993728;28;20513;-67
2022/04/10 00:24:32;;;;;;;2.40;2.30;;;;;;;;;;4993874;28;20053;-67
2022/04/10 00:26:59;;;;;;;3.00;2.80;;;;;;;;;;4993829;28;20061;-68
2022/04/10 00:29:28;;;;;;;2.75;2.55;;;;;;;;;;4993601;28;20043;-67
2022/04/10 00:31:56;;;;;;;3.72;2.90;;;;;;;;;;4992445;28;20038;-68
2022/04/10 00:34:24;;;;;;;3.00;2.70;;;;;;;;;;4992393;28;20518;-68
2022/04/10 00:36:53;;;;;;;2.97;2.78;;;;;;;;;;4992477;28;20084;-68
2022/04/10 00:39:21;;;;;;;3.42;3.13;;;;;;;;;;4993952;28;20214;-67
2022/04/10 00:41:49;;;;;;;3.00;2.80;;;;;;;;;;4992666;28;20118;-69
2022/04/10 00:44:18;;;;;;;3.42;3.15;;;;;;;;;;4995809;28;20057;-69
2022/04/10 00:46:49;;;;;;;2.90;2.70;;;;;;;;;;4997400;28;20069;-69
2022/04/10 00:49:19;;;;;;;3.20;3.00;;;;;;;;;;4997521;28;20500;-68
2022/04/10 00:51:52;;;;;;;2.75;2.55;;;;;;;;;;4997979;28;20077;-68
2022/04/10 00:54:24;;;;;;;4.43;2.70;;;;;;;;;;4996944;28;20060;-69
2022/04/10 00:56:54;;;;;;;3.22;3.03;;;;;;;;;;4997812;28;20418;-69
2022/04/10 00:59:23;;;;;;;3.17;2.92;;;;;;;;;;4995505;28;20073;-67
2022/04/10 01:01:51;;;;;;;2.95;2.75;;;;;;;;;;4997581;28;20054;-68
2022/04/10 01:04:39;;;;;;;3.80;2.80;;;;;;;;;;4995527;28;20063;-68
2022/04/10 01:07:11;;;;;;;2.88;2.67;;;;;;;;;;4996059;28;20047;-68
2022/04/10 01:09:43;;;;;;;4.85;3.50;;;;;;;;;;4980614;28;20073;-68
2022/04/10 01:12:11;;;;;;;3.55;2.58;;;;;;;;;;4995594;28;20783;-68
2022/04/10 01:14:44;;;;;;;3.33;2.83;;;;;;;;;;4996056;28;20057;-68
2022/04/10 01:17:15;;;;;;;7.20;3.20;;;;;;;;;;4980249;28;20453;-68
2022/04/10 01:19:47;;;;;;;3.15;2.85;;;;;;;;;;4995673;28;20149;-68
2022/04/10 01:22:28;;;;;;;3.47;3.17;;;;;;;;;;4996562;28;20529;-67
2022/04/10 01:24:57;;;;;;;4.35;3.17;;;;;;;;;;4980180;28;20118;-68
2022/04/10 01:27:27;;;;;;;3.70;3.40;;;;;;;;;;4995517;28;20125;-69
2022/04/10 01:29:55;;;;;;;2.95;2.75;;;;;;;;;;4996758;28;20058;-69
2022/04/10 01:32:23;;;;;;;3.80;3.50;;;;;;;;;;4995071;28;20120;-70
2022/04/10 01:34:53;;;;;;;3.42;3.13;;;;;;;;;;4995439;28;20057;-69
2022/04/10 01:37:22;;;;;;;4.00;3.60;;;;;;;;;;4994798;28;20046;-69
2022/04/10 01:39:51;;;;;;;2.95;2.75;;;;;;;;;;4995394;28;20490;-69
2022/04/10 01:42:19;;;;;;;3.22;3.03;;;;;;;;;;4994891;28;20391;-70
2022/04/10 01:44:49;;;;;;;3.05;2.85;;;;;;;;;;4995113;28;20054;-68
2022/04/10 01:47:19;;;;;;;2.90;2.70;;;;;;;;;;4995212;28;20054;-69
2022/04/10 01:49:48;;;;;;;3.47;2.95;;;;;;;;;;4995109;28;20054;-69
2022/04/10 01:52:16;;;;;;;3.30;3.10;;;;;;;;;;4996395;28;20101;-69
2022/04/10 01:54:47;;;;;;;3.45;3.20;;;;;;;;;;4994635;28;20093;-69
2022/04/10 01:57:18;;;;;;;3.40;3.10;;;;;;;;;;4996406;28;20039;-69
2022/04/10 01:59:46;;;;;;;2.70;2.50;;;;;;;;;;4994407;28;20113;-70
2022/04/10 02:02:17;;;;;;;3.17;2.90;;;;;;;;;;4994953;28;20406;-69
2022/04/10 02:04:44;;;;;;;3.10;2.80;;;;;;;;;;4995774;28;20101;-69
2022/04/10 02:07:14;;;;;;;3.17;2.88;;;;;;;;;;4979079;28;20057;-69
2022/04/10 02:09:42;;;;;;;3.25;2.95;;;;;;;;;;4979094;28;20070;-69
2022/04/10 02:12:11;;;;;;;2.92;2.72;;;;;;;;;;4994895;28;20052;-69
2022/04/10 02:14:39;;;;;;;3.00;2.80;;;;;;;;;;4995940;28;20449;-69
2022/04/10 02:17:08;;;;;;;2.72;2.53;;;;;;;;;;4994584;28;20050;-68
2022/04/10 02:19:36;;;;;;;3.50;2.80;;;;;;;;;;4994326;28;20061;-69
2022/04/10 02:22:05;;;;;;;2.78;2.58;;;;;;;;;;4994493;28;20137;-69
2022/04/10 02:24:34;;;;;;;2.88;2.60;;;;;;;;;;4994929;28;20049;-68
2022/04/10 02:27:03;;;;;;;2.47;2.30;;;;;;;;;;4995563;28;20053;-69
2022/04/10 02:29:31;;;;;;;4.05;3.15;;;;;;;;;;4995444;28;20080;-69
2022/04/10 02:32:01;;;;;;;2.70;2.50;;;;;;;;;;4995033;28;20073;-69
2022/04/10 02:34:29;;;;;;;3.25;2.95;;;;;;;;;;4995745;28;20050;-68
2022/04/10 02:37:01;;;;;;;3.00;2.80;;;;;;;;;;4977899;28;20573;-68
2022/04/10 02:39:30;;;;;;;4.35;3.47;;;;;;;;;;4994426;28;20046;-68
2022/04/10 02:41:57;;;;;;;3.50;3.30;;;;;;;;;;4995489;28;20046;-68
2022/04/10 02:44:25;;;;;;;2.53;2.40;;;;;;;;;;4993902;28;20046;-68
2022/04/10 02:46:53;;;;;;;3.13;2.88;;;;;;;;;;4994115;28;20497;-68
2022/04/10 02:49:23;;;;;;;4.22;2.97;;;;;;;;;;4994137;28;20065;-68
2022/04/10 02:51:51;;;;;;;3.20;2.90;;;;;;;;;;4977988;28;20517;-69
2022/04/10 02:54:20;;;;;;;2.90;2.70;;;;;;;;;;4995152;28;20046;-69
2022/04/10 02:56:49;;;;;;;2.80;2.60;;;;;;;;;;4994205;28;20057;-69
2022/04/10 02:59:19;;;;;;;2.85;2.65;;;;;;;;;;4994944;28;20056;-69
2022/04/10 03:01:50;;;;;;;2.90;2.70;;;;;;;;;;4993905;28;20074;-69
2022/04/10 03:04:21;;;;;;;2.70;2.50;;;;;;;;;;4994791;28;20047;-69
2022/04/10 03:06:51;;;;;;;3.05;2.85;;;;;;;;;;4993261;28;20046;-69
2022/04/10 03:09:19;;;;;;;3.53;2.80;;;;;;;;;;4993944;28;20125;-68
2022/04/10 03:11:48;;;;;;;2.88;2.67;;;;;;;;;;4977501;28;20046;-68
2022/04/10 03:14:17;;;;;;;2.80;2.60;;;;;;;;;;4993439;28;20441;-69
2022/04/10 03:16:44;;;;;;;3.25;3.05;;;;;;;;;;4994323;28;20046;-69
2022/04/10 03:19:13;;;;;;;2.72;2.55;;;;;;;;;;4993207;28;20058;-68
2022/04/10 03:21:41;;;;;;;3.30;3.00;;;;;;;;;;4992912;28;20049;-68
2022/04/10 03:24:09;;;;;;;3.25;2.95;;;;;;;;;;4994072;28;20405;-68
2022/04/10 03:26:38;;;;;;;3.05;2.83;;;;;;;;;;4993332;28;20046;-68
2022/04/10 03:29:07;;;;;;;3.15;2.95;;;;;;;;;;4992808;28;20053;-68
2022/04/10 03:31:35;;;;;;;2.67;2.50;;;;;;;;;;4984093;28;20473;-69
2022/04/10 03:34:04;;;;;;;2.90;2.70;;;;;;;;;;4994728;28;20046;-68
2022/04/10 03:36:32;;;;;;;2.92;2.70;;;;;;;;;;4992930;28;20054;-68
2022/04/10 03:39:02;;;;;;;2.53;2.33;;;;;;;;;;4993271;28;20468;-68
2022/04/10 03:41:33;;;;;;;2.58;2.47;;;;;;;;;;4978107;28;20140;-68
2022/04/10 03:44:02;;;;;;;2.88;2.70;;;;;;;;;;4993008;28;20057;-67
2022/04/10 03:46:31;;;;;;;2.95;2.75;;;;;;;;;;4994250;28;20121;-68
2022/04/10 03:49:00;;;;;;;3.03;2.83;;;;;;;;;;4977036;28;20054;-68
2022/04/10 03:51:30;;;;;;;3.13;2.92;;;;;;;;;;4993308;28;20081;-68
2022/04/10 03:53:59;;;;;;;3.33;3.13;;;;;;;;;;4992969;28;20101;-68
2022/04/10 03:56:28;;;;;;;3.33;3.13;;;;;;;;;;4993043;28;20054;-68
2022/04/10 03:59:03;;;;;;;3.35;3.15;;;;;;;;;;4992414;28;20050;-68
2022/04/10 04:01:39;;;;;;;4.18;3.10;;;;;;;;;;4991921;28;20058;-67
2022/04/10 04:04:08;;;;;;;3.85;3.53;;;;;;;;;;4992910;28;20138;-68
2022/04/10 04:06:36;;;;;;;4.47;3.08;;;;;;;;;;4993987;28;20062;-68
2022/04/10 04:09:05;;;;;;;3.42;3.20;;;;;;;;;;4992977;28;20047;-68
2022/04/10 04:11:33;;;;;;;3.28;2.97;;;;;;;;;;4993688;28;20058;-68
2022/04/10 04:14:00;;;;;;;3.92;3.63;;;;;;;;;;4992667;28;20042;-68
2022/04/10 04:16:33;;;;;;;4.15;3.70;;;;;;;;;;4977841;28;20050;-69
2022/04/10 04:19:02;;;;;;;4.15;3.85;;;;;;;;;;4996953;28;20061;-68
2022/04/10 04:21:30;;;;;;;4.57;3.40;;;;;;;;;;4996342;28;20046;-68
2022/04/10 04:23:58;;;;;;;4.00;3.60;;;;;;;;;;4996903;28;20054;-68
2022/04/10 04:26:26;;;;;;;6.22;4.03;;;;;;;;;;4980578;28;20146;-68
2022/04/10 04:28:56;;;;;;;3.85;3.55;;;;;;;;;;4997730;28;20053;-68
2022/04/10 04:31:25;;;;;;;4.22;3.92;;;;;;;;;;4996658;28;20066;-68
2022/04/10 04:33:54;;;;;;;4.03;3.72;;;;;;;;;;4980320;28;20058;-69
2022/04/10 04:36:23;;;;;;;3.90;3.60;;;;;;;;;;4997791;28;20050;-69
2022/04/10 04:38:53;;;;;;;4.18;3.88;;;;;;;;;;4997611;28;20038;-69
2022/04/10 04:41:21;;;;;;;4.82;3.90;;;;;;;;;;4996342;28;20140;-69
2022/04/10 04:43:49;;;;;;;4.40;4.10;;;;;;;;;;4996423;28;20050;-69
2022/04/10 04:46:17;;;;;;;3.50;3.30;;;;;;;;;;4980519;28;20052;-68
2022/04/10 04:48:45;;;;;;;4.05;3.65;;;;;;;;;;4996464;28;20141;-69
2022/04/10 04:51:17;;;;;;;4.18;3.30;;;;;;;;;;4996359;28;20054;-69
2022/04/10 04:53:48;;;;;;;3.50;3.22;;;;;;;;;;4995583;28;20501;-68
2022/04/10 04:56:16;;;;;;;3.63;3.33;;;;;;;;;;4997904;28;20074;-69
2022/04/10 04:58:44;;;;;;;5.45;2.83;;;;;;;;;;4995948;28;20506;-69
2022/04/10 05:01:12;;;;;;;3.75;3.45;;;;;;;;;;4979121;28;20057;-69
2022/04/10 05:03:42;;;;;;;3.30;3.00;;;;;;;;;;4995681;28;20050;-69
2022/04/10 05:06:11;;;;;;;3.00;2.80;;;;;;;;;;4997081;28;20053;-68
2022/04/10 05:08:40;;;;;;;3.78;2.75;;;;;;;;;;4995649;28;20057;-69
2022/04/10 05:11:11;;;;;;;2.55;2.38;;;;;;;;;;4995927;28;20042;-68
2022/04/10 05:13:41;;;;;;;3.97;2.80;;;;;;;;;;4995853;28;20115;-68
2022/04/10 05:16:10;;;;;;;3.58;2.38;;;;;;;;;;4995443;28;20105;-69
2022/04/10 05:18:43;;;;;;;2.58;2.38;;;;;;;;;;4995723;28;20096;-69
2022/04/10 05:21:11;;;;;;;4.50;4.10;;;;;;;;;;4995319;28;20050;-69
2022/04/10 05:23:39;;;;;;;4.82;4.43;;;;;;;;;;4995568;28;20042;-69
2022/04/10 05:26:13;;;;;;;4.22;3.92;;;;;;;;;;4995517;28;20097;-68
2022/04/10 05:28:44;;;;;;;5.18;4.78;;;;;;;;;;4990364;28;20058;-68
2022/04/10 05:31:13;;;;;;;4.82;4.43;;;;;;;;;;4984670;28;20118;-70
2022/04/10 05:33:46;;;;;;;5.50;5.03;;;;;;;;;;4991316;28;20051;-69
2022/04/10 05:36:17;;;;;;;5.40;4.60;;;;;;;;;;4989455;28;20062;-68
2022/04/10 05:38:47;;;;;;;5.25;4.85;;;;;;;;;;4990667;28;20053;-68
2022/04/10 05:41:18;;;;;;;5.40;4.90;;;;;;;;;;4977974;28;20133;-67
2022/04/10 05:43:52;;;;;;;5.45;4.90;;;;;;;;;;5006486;28;20453;-68
2022/04/10 05:46:21;;;;;;;5.22;4.78;;;;;;;;;;4990781;28;20494;-66
2022/04/10 05:48:55;;;;;;;6.13;4.47;;;;;;;;;;4989240;28;20061;-67
2022/04/10 05:51:25;;;;;;;4.53;3.53;;;;;;;;;;4985187;28;20052;-67
2022/04/10 05:53:54;;;;;;;5.93;4.40;;;;;;;;;;4986995;28;20042;-66
2022/04/10 05:56:23;;;;;;;3.75;3.45;;;;;;;;;;4986702;28;20442;-66
2022/04/10 05:58:53;;;;;;;4.05;3.75;;;;;;;;;;5007089;28;20528;-66
2022/04/10 06:01:22;;;;;;;3.95;3.65;;;;;;;;;;4988465;28;20065;-66
2022/04/10 06:03:53;;;;;;;5.88;4.22;;;;;;;;;;4977113;28;20054;-69
2022/04/10 06:06:21;;;;;;;5.07;4.05;;;;;;;;;;4992772;28;20047;-65
2022/04/10 06:08:58;;;;;;;5.38;3.95;;;;;;;;;;4990464;28;20515;-65
2022/04/10 06:11:29;;;;;;;4.60;4.20;;;;;;;;;;4991124;28;20077;-66
2022/04/10 06:14:00;;;;;;;4.90;4.20;;;;;;;;;;4990385;28;20058;-65
2022/04/10 06:16:31;;;;;;;4.18;3.85;;;;;;;;;;4994000;28;20397;-66
2022/04/10 06:19:04;;;;;;;4.47;4.05;;;;;;;;;;4994091;28;20133;-67
2022/04/10 06:21:33;;;;;;;4.43;3.90;;;;;;;;;;4993523;28;20053;-67
2022/04/10 06:24:04;;;;;;;4.40;3.78;;;;;;;;;;4982877;28;20105;-67
2022/04/10 06:26:40;;;;;;;3.67;3.38;;;;;;;;;;5006024;28;20145;-67
2022/04/10 06:29:09;;;;;;;5.90;3.20;;;;;;;;;;5003079;28;20043;-68
2022/04/10 06:31:44;;;;;;;3.40;3.10;;;;;;;;;;5003356;28;20093;-67
2022/04/10 06:34:14;;;;;;;3.88;3.58;;;;;;;;;;4993794;28;20418;-67
2022/04/10 06:36:43;;;;;;;3.67;3.30;;;;;;;;;;4994162;28;20104;-67
2022/04/10 06:39:17;;;;;;;7.00;4.15;;;;;;;;;;4994206;28;20486;-67
2022/04/10 06:41:47;;;;;;;3.92;3.55;;;;;;;;;;4993801;28;20080;-66
2022/04/10 06:44:37;;;;;;;3.95;3.63;;;;;;;;;;4993843;28;20054;-67
2022/04/10 06:47:12;;;;;;;3.60;3.30;;;;;;;;;;4994436;28;20405;-68
2022/04/10 06:49:40;;;;;;;3.83;3.45;;;;;;;;;;4993872;28;20129;-67
2022/04/10 06:52:08;;;;;;;3.55;3.25;;;;;;;;;;4994160;28;20052;-67
2022/04/10 06:54:40;;;;;;;5.07;3.40;;;;;;;;;;4993364;28;20054;-67
2022/04/10 06:57:11;;;;;;;3.35;3.05;;;;;;;;;;4993527;28;20084;-68
2022/04/10 06:59:39;;;;;;;3.03;2.83;;;;;;;;;;4993599;28;20054;-68
2022/04/10 07:02:10;;;;;;;3.85;3.47;;;;;;;;;;4993949;28;20053;-68
2022/04/10 07:04:40;;;;;;;4.45;2.75;;;;;;;;;;4993512;28;20073;-68
2022/04/10 07:07:10;;;;;;;3.63;3.17;;;;;;;;;;4993912;28;20116;-69
2022/04/10 07:09:38;;;;;;;3.55;2.88;;;;;;;;;;4993280;28;20054;-69
2022/04/10 07:12:09;;;;;;;3.33;2.58;;;;;;;;;;4993477;28;20054;-69
2022/04/10 07:14:42;;;;;;;4.68;2.55;;;;;;;;;;4978759;28;20047;-69
2022/04/10 07:17:12;;;;;;;3.47;2.60;;;;;;;;;;4993145;28;20416;-70
2022/04/10 07:19:41;;;;;;;2.60;2.40;;;;;;;;;;4993302;28;20082;-71
2022/04/10 07:25:01;;;;;;;2.40;2.20;;;;;;;;;;4979962;28;20379;-72
2022/04/10 07:27:30;;;;;;;2.78;2.30;;;;;;;;;;4992816;28;20533;-71
2022/04/10 07:30:10;;;;;;;3.10;2.42;;;;;;;;;;4996638;28;20084;-71
2022/04/10 07:32:40;;;;;;;2.65;2.45;;;;;;;;;;4992093;28;20494;-71
2022/04/10 07:35:16;;;;;;;1.83;1.73;;;;;;;;;;4992767;28;20046;-73
2022/04/10 07:38:07;;;;;;;2.55;2.00;;;;;;;;;;4993663;28;20054;-72
2022/04/10 07:40:36;;;;;;;1.55;1.45;;;;;;;;;;4993689;28;20050;-71
2022/04/10 07:43:08;;;;;;;1.50;1.40;;;;;;;;;;4998234;28;20053;-74
2022/04/10 07:48:45;;;;;;;1.73;1.63;;;;;;;;;;4987914;28;20066;-69
2022/04/10 07:51:19;;;;;;;2.35;2.20;;;;;;;;;;4977985;28;20101;-69
2022/04/10 07:54:01;;;;;;;1.80;1.70;;;;;;;;;;4983029;28;20042;-69
2022/04/10 07:56:29;;;;;;;2.05;1.85;;;;;;;;;;4972964;28;20042;-69
2022/04/10 07:59:00;;;;;;;2.47;1.80;;;;;;;;;;4999313;28;20109;-69
2022/04/10 08:01:39;;;;;;;3.08;1.63;;;;;;;;;;4995585;28;20078;-69
2022/04/10 08:04:20;;;;;;;3.13;1.50;;;;;;;;;;4987300;28;20047;-69
2022/04/10 08:07:10;;;;;;;2.47;1.45;;;;;;;;;;4991944;28;20132;-64
2022/04/10 08:09:38;;;;;;;1.45;1.20;;;;;;;;;;4969420;28;20050;-64
2022/04/10 08:12:09;;;;;;;1.33;1.27;;;;;;;;;;4990732;28;20502;-64
2022/04/10 08:14:37;;;;;;;1.45;1.35;;;;;;;;;;4992771;28;20054;-64
2022/04/10 08:17:11;;;;;;;3.10;1.85;;;;;;;;;;4991559;28;20077;-65
2022/04/10 08:19:40;;;;;;;1.20;1.10;;;;;;;;;;4993907;28;20042;-65
2022/04/10 08:22:08;;;;;;;1.10;1.00;;;;;;;;;;4993499;28;20137;-66
2022/04/10 08:24:36;;;;;;;2.00;1.30;;;;;;;;;;4988302;28;20054;-65
2022/04/10 08:27:05;;;;;;;1.75;1.20;;;;;;;;;;5004781;28;20119;-65
2022/04/10 08:29:35;;;;;;;1.50;1.40;;;;;;;;;;5002835;28;20048;-64
2022/04/10 08:32:07;;;;;;;1.35;1.25;;;;;;;;;;5006279;28;20073;-64
2022/04/10 08:34:35;;;;;;;1.30;1.20;;;;;;;;;;5002177;28;20088;-64
2022/04/10 08:37:05;;;;;;;4.22;1.50;;;;;;;;;;5004554;28;20104;-63
2022/04/10 08:39:34;;;;;;;5.68;2.20;;;;;;;;;;5000596;28;20134;-65
2022/04/10 08:42:05;;;;;;;4.88;1.90;;;;;;;;;;5005054;28;20104;-66
2022/04/10 08:44:36;;;;;;;4.43;1.63;;;;;;;;;;4992883;28;20046;-64
2022/04/10 08:47:04;;;;;;;3.35;1.98;;;;;;;;;;4995693;28;20137;-67
2022/04/10 08:49:32;;;;;;;1.42;1.33;;;;;;;;;;5001176;28;20069;-64
2022/04/10 08:52:01;;;;;;;1.40;1.30;;;;;;;;;;4995124;28;20129;-65
2022/04/10 08:54:30;;;;;;;1.70;1.60;;;;;;;;;;4998832;28;20074;-65
2022/04/10 08:57:01;;;;;;;2.67;1.73;;;;;;;;;;4997600;28;20108;-65
2022/04/10 08:59:30;;;;;;;2.38;1.65;;;;;;;;;;4993718;28;20105;-67
2022/04/10 09:02:00;;;;;;;2.63;1.65;;;;;;;;;;4990341;28;20112;-66
2022/04/10 09:04:29;;;;;;;2.28;1.50;;;;;;;;;;4985618;28;20050;-66
2022/04/10 09:14:46;;;;;;;3.60;1.65;;;;;;;;;;4994366;28;20073;-67
2022/04/10 09:17:18;;;;;;;1.60;1.50;;;;;;;;;;4995069;28;20046;-66
2022/04/10 09:19:52;;;;;;;2.53;1.85;;;;;;;;;;4998067;28;20053;-77
2022/04/10 09:22:40;;;;;;;2.20;2.00;;;;;;;;;;4997753;28;20062;-72
2022/04/10 09:25:17;;;;;;;1.77;1.67;;;;;;;;;;4997229;28;20519;-70
2022/04/10 09:28:06;;;;;;;2.78;1.33;;;;;;;;;;4994391;28;20440;-68
2022/04/10 09:30:35;;;;;;;2.92;1.73;;;;;;;;;;4997111;28;20054;-73
2022/04/10 09:33:22;;;;;;;2.30;1.63;;;;;;;;;;4990710;28;20076;-69
2022/04/10 09:35:51;;;;;;;5.28;2.67;;;;;;;;;;4993753;28;20054;-77
2022/04/10 09:38:29;;;;;;;2.58;1.83;;;;;;;;;;4997255;28;20046;-76
2022/04/10 09:41:12;;;;;;;2.08;1.65;;;;;;;;;;5009502;28;20571;-76
2022/04/10 09:43:39;;;;;;;1.90;1.80;;;;;;;;;;4996044;28;20058;-75
2022/04/10 09:46:13;;;;;;;2.20;1.88;;;;;;;;;;4993082;28;20425;-74
2022/04/10 09:52:19;;;;;;;3.63;1.90;;;;;;;;;;4994726;28;20142;-72
2022/04/10 09:54:52;;;;;;;1.80;1.70;;;;;;;;;;4994821;28;20057;-69
2022/04/10 09:57:22;;;;;;;3.38;1.70;;;;;;;;;;4994437;28;20054;-70
2022/04/10 09:59:51;;;;;;;2.97;1.70;;;;;;;;;;4995744;28;20137;-70
2022/04/10 10:02:23;;;;;;;2.28;2.03;;;;;;;;;;4994786;28;20653;-66
2022/04/10 10:04:54;;;;;;;2.58;1.75;;;;;;;;;;4994682;28;20042;-67
2022/04/10 10:07:23;;;;;;;1.75;1.65;;;;;;;;;;5008123;28;20046;-67
2022/04/10 10:09:51;;;;;;;2.00;1.75;;;;;;;;;;4992854;28;20057;-66
2022/04/10 10:12:19;;;;;;;1.63;1.52;;;;;;;;;;4992859;28;20125;-69
2022/04/10 10:14:48;;;;;;;3.83;2.00;;;;;;;;;;4944982;28;20523;-69
2022/04/10 10:17:17;;;;;;;2.00;1.90;;;;;;;;;;5008057;28;20106;-68
2022/04/10 10:19:45;;;;;;;2.95;1.60;;;;;;;;;;4996142;28;20054;-67
2022/04/10 10:22:15;;;;;;;2.10;1.95;;;;;;;;;;4994360;28;20417;-67
2022/04/10 10:24:55;;;;;;;2.70;2.50;;;;;;;;;;4996043;28;20050;-67
2022/04/10 10:27:50;;;;;;;1.98;1.88;;;;;;;;;;5009296;28;20390;-67
2022/04/10 10:30:18;;;;;;;3.10;2.75;;;;;;;;;;5009967;28;20472;-67
2022/04/10 10:32:56;;;;;;;2.20;2.00;;;;;;;;;;4995500;28;20038;-65
2022/04/10 10:35:35;;;;;;;2.25;1.67;;;;;;;;;;4993598;28;20065;-66
2022/04/10 10:38:03;;;;;;;1.95;1.80;;;;;;;;;;4994596;28;20058;-67
2022/04/10 10:40:32;;;;;;;3.03;1.70;;;;;;;;;;5008820;28;20042;-67
2022/04/10 10:43:01;;;;;;;3.33;1.88;;;;;;;;;;5008480;28;20149;-67
2022/04/10 10:45:41;;;;;;;3.90;1.90;;;;;;;;;;4994216;28;20088;-67
2022/04/10 10:48:26;;;;;;;2.17;2.00;;;;;;;;;;4994486;28;20184;-67
2022/04/10 10:50:55;;;;;;;2.08;1.73;;;;;;;;;;4994832;28;20409;-67
2022/04/10 10:53:47;;;;;;;2.10;1.23;;;;;;;;;;4995293;28;20409;-68
2022/04/10 10:56:31;;;;;;;2.35;1.80;;;;;;;;;;4992345;28;20505;-67
2022/04/10 10:59:27;;;;;;;1.73;1.63;;;;;;;;;;4990420;28;20046;-67
2022/04/10 11:02:06;;;;;;;3.05;1.55;;;;;;;;;;4995520;28;20138;-67
2022/04/10 11:04:44;;;;;;;2.45;1.40;;;;;;;;;;4994683;28;20097;-68
2022/04/10 11:07:19;;;;;;;1.98;1.65;;;;;;;;;;4995598;28;20050;-68
2022/04/10 11:09:54;;;;;;;1.58;1.48;;;;;;;;;;4993923;28;20051;-67
2022/04/10 11:12:30;;;;;;;4.20;1.60;;;;;;;;;;4974844;28;20779;-67
2022/04/10 11:14:59;;;;;;;1.42;1.33;;;;;;;;;;4976135;28;20466;-67
2022/04/10 11:17:31;;;;;;;1.58;1.48;;;;;;;;;;4982659;28;20062;-67
2022/04/10 11:20:07;;;;;;;3.10;1.40;;;;;;;;;;4993537;28;20073;-67
2022/04/10 11:22:37;;;;;;;1.20;1.10;;;;;;;;;;4995024;28;20046;-67
2022/04/10 11:25:08;;;;;;;1.50;1.23;;;;;;;;;;4994478;28;20085;-66
2022/04/10 11:27:51;;;;;;;2.75;1.10;;;;;;;;;;4994215;28;20137;-66
2022/04/10 11:30:28;;;;;;;1.75;1.35;;;;;;;;;;5009880;28;20060;-65
2022/04/10 11:32:58;;;;;;;1.38;1.27;;;;;;;;;;4994861;28;20073;-66
2022/04/10 11:35:29;;;;;;;1.00;1.00;;;;;;;;;;4993614;28;20137;-66
2022/04/10 11:38:05;;;;;;;1.42;1.13;;;;;;;;;;4993663;28;20042;-65
2022/04/10 11:40:36;;;;;;;1.35;0.93;;;;;;;;;;4993588;28;20105;-66
2022/04/10 11:43:07;;;;;;;1.00;0.90;;;;;;;;;;4993938;28;20062;-66
2022/04/10 11:45:37;;;;;;;0.90;0.77;;;;;;;;;;4994333;28;20539;-66
2022/04/10 11:48:07;;;;;;;4.35;1.65;;;;;;;;;;4995313;28;20141;-66
2022/04/10 11:50:36;;;;;;;1.25;0.90;;;;;;;;;;4994464;28;20085;-65
2022/04/10 11:53:12;;;;;;;3.22;0.90;;;;;;;;;;4993709;28;20085;-65
2022/04/10 11:55:44;;;;;;;0.90;0.63;;;;;;;;;;4994719;28;20124;-65
2022/04/10 11:58:25;;;;;;;1.80;0.70;;;;;;;;;;4992678;28;20160;-65
2022/04/10 12:01:18;;;;;;;0.90;0.88;;;;;;;;;;4993562;28;20364;-66
2022/04/10 12:03:50;;;;;;;2.50;1.00;;;;;;;;;;4993336;28;20054;-67
2022/04/10 12:06:20;;;;;;;1.05;0.88;;;;;;;;;;4994543;28;20054;-65
2022/04/10 12:08:51;;;;;;;1.65;1.17;;;;;;;;;;4994264;28;20078;-65
2022/04/10 12:11:19;;;;;;;1.33;0.90;;;;;;;;;;4993152;28;20066;-65
2022/04/10 12:13:48;;;;;;;0.80;0.80;;;;;;;;;;4994427;28;20061;-65
2022/04/10 12:16:16;;;;;;;0.90;0.90;;;;;;;;;;4994795;28;20493;-65
2022/04/10 12:18:49;;;;;;;0.85;0.80;;;;;;;;;;4995410;28;20050;-65
2022/04/10 12:21:18;;;;;;;0.90;0.80;;;;;;;;;;4995463;28;20049;-66
2022/04/10 12:23:46;;;;;;;0.93;0.70;;;;;;;;;;4995404;28;20516;-66
2022/04/10 12:26:15;;;;;;;0.85;0.85;;;;;;;;;;4994822;28;20051;-66
2022/04/10 12:28:44;;;;;;;0.80;0.80;;;;;;;;;;4995074;28;20053;-65
2022/04/10 12:31:13;;;;;;;0.93;0.60;;;;;;;;;;4994848;28;20068;-65
2022/04/10 12:33:42;;;;;;;0.70;0.70;;;;;;;;;;4995323;28;20050;-65
2022/04/10 12:36:17;;;;;;;0.60;0.50;;;;;;;;;;4994943;28;20497;-66
2022/04/10 12:38:45;;;;;;;0.80;0.80;;;;;;;;;;4996643;28;20101;-65
2022/04/10 12:41:31;;;;;;;3.15;0.80;;;;;;;;;;4998873;28;20046;-65
2022/04/10 12:44:03;;;;;;;2.25;0.90;;;;;;;;;;4999390;28;20050;-66
2022/04/10 12:46:56;;;;;;;1.05;0.80;;;;;;;;;;4999253;28;20077;-65
2022/04/10 12:49:24;;;;;;;0.50;0.50;;;;;;;;;;4998598;28;20042;-65
2022/04/10 12:52:03;;;;;;;0.85;0.73;;;;;;;;;;4997991;28;20113;-65
2022/04/10 12:54:35;;;;;;;0.80;0.80;;;;;;;;;;4999004;28;20053;-65
2022/04/10 12:57:07;;;;;;;2.03;0.80;;;;;;;;;;4997647;28;20523;-65
2022/04/10 12:59:48;;;;;;;0.98;0.77;;;;;;;;;;4998441;28;20047;-65
2022/04/10 13:02:29;;;;;;;1.55;0.77;;;;;;;;;;4998640;28;20062;-64
2022/04/10 13:05:00;;;;;;;1.10;1.00;;;;;;;;;;4998174;28;20192;-65
2022/04/10 13:07:29;;;;;;;1.25;1.15;;;;;;;;;;4998151;28;20050;-65
2022/04/10 13:10:03;;;;;;;2.90;2.33;;;;;;;;;;4998204;28;20046;-65
2022/04/10 13:12:39;;;;;;;1.40;1.30;;;;;;;;;;4997166;28;20390;-66
2022/04/10 13:15:11;;;;;;;1.55;1.17;;;;;;;;;;4997958;28;20058;-65
2022/04/10 13:17:40;;;;;;;0.73;0.73;;;;;;;;;;4998198;28;20166;-65
2022/04/10 13:20:10;;;;;;;0.77;0.77;;;;;;;;;;4997677;28;20059;-66
2022/04/10 13:22:41;;;;;;;0.85;0.82;;;;;;;;;;4998385;28;20061;-66
2022/04/10 13:25:11;;;;;;;2.08;0.70;;;;;;;;;;4997844;28;20129;-66
2022/04/10 13:27:40;;;;;;;0.63;0.63;;;;;;;;;;4996335;28;20409;-65
2022/04/10 13:30:12;;;;;;;0.80;0.80;;;;;;;;;;4998022;28;20039;-65
2022/04/10 13:32:42;;;;;;;1.23;1.00;;;;;;;;;;4997827;28;20058;-66
2022/04/10 13:35:10;;;;;;;0.70;0.70;;;;;;;;;;4998450;28;20116;-65
2022/04/10 13:37:39;;;;;;;1.65;0.90;;;;;;;;;;4997827;28;20042;-65
2022/04/10 13:40:08;;;;;;;0.70;0.70;;;;;;;;;;4998061;28;20046;-65
2022/04/10 13:42:43;;;;;;;1.85;0.65;;;;;;;;;;4997711;28;20054;-65
2022/04/10 13:45:12;;;;;;;1.27;0.73;;;;;;;;;;4996425;28;20058;-65
2022/04/10 13:47:40;;;;;;;1.70;0.95;;;;;;;;;;4997450;28;20068;-64
2022/04/10 13:50:10;;;;;;;2.70;0.77;;;;;;;;;;4997395;28;20084;-65
2022/04/10 13:52:37;;;;;;;1.85;0.70;;;;;;;;;;4997626;28;20050;-64
2022/04/10 13:55:07;;;;;;;1.73;0.65;;;;;;;;;;4997560;28;20046;-65
2022/04/10 13:57:36;;;;;;;2.05;1.27;;;;;;;;;;4996606;28;20047;-65
2022/04/10 14:00:07;;;;;;;1.10;0.70;;;;;;;;;;4996259;28;20054;-65
2022/04/10 14:02:38;;;;;;;0.90;0.73;;;;;;;;;;4995871;28;20477;-63
2022/04/10 14:05:07;;;;;;;0.68;0.60;;;;;;;;;;4996646;28;20081;-65
2022/04/10 14:07:36;;;;;;;0.70;0.70;;;;;;;;;;4995608;28;20097;-65
2022/04/10 14:10:05;;;;;;;1.10;1.00;;;;;;;;;;4995892;28;20050;-65
2022/04/10 14:12:34;;;;;;;1.83;0.90;;;;;;;;;;4997400;28;20125;-66
2022/04/10 14:15:05;;;;;;;1.17;0.52;;;;;;;;;;4996289;28;20130;-66
2022/04/10 14:17:34;;;;;;;0.57;0.57;;;;;;;;;;4996385;28;20047;-67
2022/04/10 14:20:03;;;;;;;1.38;0.80;;;;;;;;;;4996621;28;20105;-67
2022/04/10 14:22:32;;;;;;;1.40;0.90;;;;;;;;;;4996638;28;20046;-65
2022/04/10 14:25:03;;;;;;;1.20;0.90;;;;;;;;;;4995345;28;20053;-65
2022/04/10 14:27:31;;;;;;;0.85;0.85;;;;;;;;;;4995845;28;20574;-65
2022/04/10 14:30:00;;;;;;;1.02;1.02;;;;;;;;;;4995673;28;20061;-67
2022/04/10 14:32:31;;;;;;;1.08;0.93;;;;;;;;;;4996068;28;20046;-66
2022/04/10 14:35:00;;;;;;;1.02;0.75;;;;;;;;;;4995070;28;20509;-67
2022/04/10 14:37:29;;;;;;;1.00;0.93;;;;;;;;;;4995573;28;20457;-65
2022/04/10 14:39:58;;;;;;;1.08;0.98;;;;;;;;;;4995962;28;20057;-65
2022/04/10 14:42:25;;;;;;;1.63;1.50;;;;;;;;;;4995072;28;20042;-64
2022/04/10 14:44:54;;;;;;;1.83;1.10;;;;;;;;;;4994665;28;20493;-64
2022/04/10 14:47:23;;;;;;;1.20;1.10;;;;;;;;;;4994977;28;20046;-64
2022/04/10 14:49:51;;;;;;;1.35;0.80;;;;;;;;;;4995368;28;20178;-65
2022/04/10 14:52:21;;;;;;;3.72;0.90;;;;;;;;;;4995666;28;20553;-64
2022/04/10 14:54:50;;;;;;;1.77;1.23;;;;;;;;;;4996038;28;20070;-64
2022/04/10 14:57:20;;;;;;;1.35;0.98;;;;;;;;;;4995563;28;20100;-65
2022/04/10 14:59:48;;;;;;;1.75;1.23;;;;;;;;;;4995521;28;20046;-65
2022/04/10 15:02:18;;;;;;;1.15;1.05;;;;;;;;;;4994019;28;20061;-65
2022/04/10 15:04:47;;;;;;;1.55;1.10;;;;;;;;;;4993996;28;20470;-65
2022/04/10 15:07:16;;;;;;;1.17;1.08;;;;;;;;;;4995363;28;20448;-65
2022/04/10 15:09:45;;;;;;;1.20;1.10;;;;;;;;;;4995689;28;20410;-65
2022/04/10 15:12:14;;;;;;;1.20;1.10;;;;;;;;;;4996177;28;20116;-65
2022/04/10 15:14:43;;;;;;;1.30;1.00;;;;;;;;;;4996014;28;20042;-65
2022/04/10 15:17:11;;;;;;;1.33;1.23;;;;;;;;;;4995310;28;20576;-65
2022/04/10 15:19:40;;;;;;;2.28;1.15;;;;;;;;;;4996099;28;20504;-65
2022/04/10 15:22:09;;;;;;;1.88;1.27;;;;;;;;;;4996022;28;20053;-65
2022/04/10 15:24:36;;;;;;;1.73;1.25;;;;;;;;;;4995683;28;20070;-65